Terminal Aerodrome Forecast
Issued by NWS

Home | Current Version | Previous Version | Graphics & Text | Print | Product List | Glossary On
Versions: 1 2 3 4 5 6 7 8 9 10 11 12 13 14 15 16 17 18 19 20 21 22 23 24 25 26 27 28 29 30 31
000
FTUS43 KLOT 220300 AAC
TAFMDW
TAF AMD
KMDW 220300Z 2203/2224 11010KT 4SM -TSRA SCT015 BKN035CB OVC060
      TEMPO 2203/2204 28015G25KT 1SM +TSRA
     FM220500 18008KT 5SM -SHRA VCTS BKN035 BKN080CB
      TEMPO 2206/2209 2SM TSRA SCT015 BKN025CB
     FM221100 21010KT P6SM SCT035 BKN050
     FM221800 01008KT P6SM BKN050=

USA.gov is the U.S. government's official web portal to all federal, state and local government web resources and services.